createdAt,value
2023-03-02T00:02:18.615Z,-4.24
2023-03-02T00:04:54.735Z,-4.25
2023-03-02T00:07:32.095Z,-4.24
2023-03-02T00:10:06.518Z,-4.33
2023-03-02T00:12:40.144Z,-4.44
2023-03-02T00:15:14.153Z,-4.44
2023-03-02T00:17:47.387Z,-4.36
2023-03-02T00:20:20.910Z,-4.27
2023-03-02T00:22:54.353Z,-4.20
2023-03-02T00:25:28.869Z,-4.15
2023-03-02T00:28:02.275Z,-4.13
2023-03-02T00:30:35.492Z,-4.18
2023-03-02T00:33:09.244Z,-4.30
2023-03-02T00:35:43.221Z,-4.43
2023-03-02T00:38:17.132Z,-4.56
2023-03-02T00:40:51.074Z,-4.67
2023-03-02T00:43:26.450Z,-4.76
2023-03-02T00:45:59.956Z,-4.84
2023-03-02T00:48:33.243Z,-4.90
2023-03-02T00:51:08.113Z,-4.95
2023-03-02T00:53:42.407Z,-4.94
2023-03-02T00:56:16.124Z,-4.92
2023-03-02T00:58:51.088Z,-4.88
2023-03-02T01:01:26.581Z,-4.78
2023-03-02T01:03:59.991Z,-4.72
2023-03-02T01:06:33.915Z,-4.71
2023-03-02T01:09:08.634Z,-4.71
2023-03-02T01:11:42.251Z,-4.71
2023-03-02T01:14:16.200Z,-4.74
2023-03-02T01:16:49.723Z,-4.79
2023-03-02T01:19:23.366Z,-4.85
2023-03-02T01:21:56.634Z,-4.91
2023-03-02T01:24:30.206Z,-4.93
2023-03-02T01:27:03.600Z,-4.90
2023-03-02T01:29:37.006Z,-4.85
2023-03-02T01:32:10.270Z,-4.84
2023-03-02T01:34:44.235Z,-4.83
2023-03-02T01:37:17.844Z,-4.80
2023-03-02T01:39:51.477Z,-4.73
2023-03-02T01:42:24.842Z,-4.70
2023-03-02T01:44:58.342Z,-4.62
2023-03-02T01:47:34.984Z,-4.53
2023-03-02T01:50:14.903Z,-4.49
2023-03-02T01:52:50.559Z,-4.49
2023-03-02T01:55:26.772Z,-4.46
2023-03-02T01:58:02.111Z,-4.45
2023-03-02T02:00:38.446Z,-4.44
2023-03-02T02:03:15.337Z,-4.44
2023-03-02T02:05:52.051Z,-4.42
2023-03-02T02:08:26.666Z,-4.39
2023-03-02T02:11:00.973Z,-4.39
2023-03-02T02:13:35.503Z,-4.40
2023-03-02T02:16:10.250Z,-4.38
2023-03-02T02:18:44.982Z,-4.40
2023-03-02T02:21:20.125Z,-4.40
2023-03-02T02:23:58.124Z,-4.43
2023-03-02T02:26:35.756Z,-4.42
2023-03-02T02:29:10.705Z,-4.43
2023-03-02T02:31:47.043Z,-4.35
2023-03-02T02:34:23.186Z,-4.35
2023-03-02T02:36:59.839Z,-4.33
2023-03-02T02:39:36.025Z,-4.36
2023-03-02T02:42:13.631Z,-4.36
2023-03-02T02:44:47.323Z,-4.38
2023-03-02T02:47:23.123Z,-4.36
2023-03-02T02:49:57.697Z,-4.31
2023-03-02T02:52:32.143Z,-4.27
2023-03-02T02:55:06.851Z,-4.27
2023-03-02T02:57:40.680Z,-4.23
2023-03-02T03:00:20.950Z,-4.20
2023-03-02T03:02:59.787Z,-4.23
2023-03-02T03:05:33.773Z,-4.19
2023-03-02T03:08:12.627Z,-4.18
2023-03-02T03:10:48.652Z,-4.20
2023-03-02T03:13:22.148Z,-4.19
2023-03-02T03:15:55.741Z,-4.16
2023-03-02T03:18:31.278Z,-4.12
2023-03-02T03:21:05.451Z,-4.13
2023-03-02T03:23:39.225Z,-4.11
2023-03-02T03:26:13.325Z,-4.10
2023-03-02T03:28:47.442Z,-4.10
2023-03-02T03:31:21.377Z,-4.10
2023-03-02T03:33:55.178Z,-4.07
2023-03-02T03:36:29.794Z,-4.05
2023-03-02T03:39:05.718Z,-4.09
2023-03-02T03:41:40.387Z,-4.12
2023-03-02T03:44:14.856Z,-4.16
2023-03-02T03:46:48.458Z,-4.18
2023-03-02T03:49:22.304Z,-4.18
2023-03-02T03:51:56.524Z,-4.16
2023-03-02T03:54:31.020Z,-4.18
2023-03-02T03:57:04.947Z,-4.21
2023-03-02T03:59:38.583Z,-4.19
2023-03-02T04:02:12.388Z,-4.19
2023-03-02T04:04:47.767Z,-4.17
2023-03-02T04:07:22.768Z,-4.17
2023-03-02T04:09:59.146Z,-4.16
2023-03-02T04:12:36.033Z,-4.15
2023-03-02T04:15:15.625Z,-4.15
2023-03-02T04:17:50.283Z,-4.16
2023-03-02T04:20:27.248Z,-4.18
2023-03-02T04:23:01.878Z,-4.15
2023-03-02T04:25:36.271Z,-4.13
2023-03-02T04:28:11.267Z,-4.11
2023-03-02T04:30:46.545Z,-4.12
2023-03-02T04:33:19.904Z,-4.11
2023-03-02T04:35:55.167Z,-4.08
2023-03-02T04:38:29.860Z,-4.02
2023-03-02T04:41:04.474Z,-3.98
2023-03-02T04:43:37.883Z,-4.06
2023-03-02T04:46:14.297Z,-4.06
2023-03-02T04:48:47.600Z,-4.05
2023-03-02T04:51:24.287Z,-4.07
2023-03-02T04:54:00.286Z,-4.06
2023-03-02T04:56:34.191Z,-4.04
2023-03-02T04:59:07.993Z,-4.06
2023-03-02T05:01:42.237Z,-4.05
2023-03-02T05:04:16.591Z,-4.05
2023-03-02T05:06:50.321Z,-3.98
2023-03-02T05:09:25.442Z,-3.96
2023-03-02T05:12:00.156Z,-3.91
2023-03-02T05:14:34.145Z,-3.91
2023-03-02T05:17:07.702Z,-3.88
2023-03-02T05:19:41.284Z,-3.88
2023-03-02T05:22:14.949Z,-3.87
2023-03-02T05:24:49.220Z,-3.87
2023-03-02T05:27:22.470Z,-3.84
2023-03-02T05:29:55.756Z,-3.84
2023-03-02T05:32:29.297Z,-3.79
2023-03-02T05:35:02.748Z,-3.78
2023-03-02T05:37:36.084Z,-3.74
2023-03-02T05:40:12.619Z,-3.67
2023-03-02T05:42:46.741Z,-3.60
2023-03-02T05:45:24.290Z,-3.55
2023-03-02T05:47:58.050Z,-3.53
2023-03-02T05:50:31.181Z,-3.51
2023-03-02T05:53:04.896Z,-3.51
2023-03-02T05:55:38.477Z,-3.47
2023-03-02T05:58:14.693Z,-3.41
2023-03-02T06:00:49.219Z,-3.33
2023-03-02T06:03:22.617Z,-3.33
2023-03-02T06:05:56.382Z,-3.23
2023-03-02T06:08:29.851Z,-3.14
2023-03-02T06:11:03.443Z,-3.15
2023-03-02T06:13:37.501Z,-3.14
2023-03-02T06:16:11.507Z,-3.06
2023-03-02T06:18:44.913Z,-2.96
2023-03-02T06:21:18.489Z,-2.88
2023-03-02T06:23:52.120Z,-2.84
2023-03-02T06:26:25.562Z,-2.84
2023-03-02T06:28:59.120Z,-2.85
2023-03-02T06:31:32.709Z,-2.86
2023-03-02T06:34:06.862Z,-2.88
2023-03-02T06:36:40.308Z,-2.90
2023-03-02T06:39:16.668Z,-2.91
2023-03-02T06:41:50.581Z,-2.99
2023-03-02T06:44:24.355Z,-2.94
2023-03-02T06:46:57.679Z,-2.87
2023-03-02T06:49:31.363Z,-2.91
2023-03-02T06:52:06.838Z,-2.87
2023-03-02T06:54:40.589Z,-2.86
2023-03-02T06:57:13.961Z,-2.74
2023-03-02T06:59:47.440Z,-2.58
2023-03-02T07:02:20.811Z,-2.46
2023-03-02T07:04:54.095Z,-2.30
2023-03-02T07:07:27.413Z,-2.27
2023-03-02T07:10:00.787Z,-2.19
2023-03-02T07:12:34.936Z,-2.16
2023-03-02T07:15:12.224Z,-2.20
2023-03-02T07:17:46.824Z,-2.16
2023-03-02T07:20:20.897Z,-2.27
2023-03-02T07:22:54.429Z,-2.35
2023-03-02T07:25:27.975Z,-2.32
2023-03-02T07:28:01.396Z,-2.32
2023-03-02T07:30:37.368Z,-2.30
2023-03-02T07:33:11.069Z,-2.32
2023-03-02T07:35:44.661Z,-2.42
2023-03-02T07:38:18.387Z,-2.27
2023-03-02T07:40:52.058Z,-2.09
2023-03-02T07:43:26.702Z,-1.91
2023-03-02T07:46:01.770Z,-1.88
2023-03-02T07:48:35.899Z,-1.93
2023-03-02T07:51:09.377Z,-1.95
2023-03-02T07:53:43.774Z,-2.13
2023-03-02T07:56:17.653Z,-2.17
2023-03-02T07:58:51.040Z,-1.95
2023-03-02T08:01:24.543Z,-1.60
2023-03-02T08:03:57.736Z,-1.20
2023-03-02T08:06:31.858Z,-1.10
2023-03-02T08:09:06.450Z,-0.89
2023-03-02T08:11:39.844Z,-0.59
2023-03-02T08:14:13.343Z,-0.38
2023-03-02T08:16:46.937Z,-0.26
2023-03-02T08:19:20.575Z,-0.55
2023-03-02T08:21:54.165Z,-0.86
2023-03-02T08:24:27.928Z,-1.00
2023-03-02T08:27:03.710Z,-0.78
2023-03-02T08:29:37.949Z,-0.56
2023-03-02T08:32:11.497Z,0.05
2023-03-02T08:34:44.984Z,-0.12
2023-03-02T08:37:18.591Z,-0.50
2023-03-02T08:39:52.693Z,-1.00
2023-03-02T08:42:26.813Z,-1.31
2023-03-02T08:45:00.404Z,-1.35
2023-03-02T08:47:35.038Z,-1.32
2023-03-02T08:50:10.064Z,-1.42
2023-03-02T08:52:43.743Z,-1.56
2023-03-02T08:55:18.730Z,-1.59
2023-03-02T08:57:52.151Z,-1.69
2023-03-02T09:00:26.174Z,-1.68
2023-03-02T09:02:59.576Z,-1.73
2023-03-02T09:05:32.918Z,-1.73
2023-03-02T09:08:07.750Z,-1.69
2023-03-02T09:10:41.268Z,-1.64
2023-03-02T09:13:14.789Z,-1.51
2023-03-02T09:15:48.960Z,-1.36
2023-03-02T09:18:22.406Z,-1.32
2023-03-02T09:20:57.206Z,-1.18
2023-03-02T09:23:31.737Z,-1.00
2023-03-02T09:26:05.745Z,-0.98
2023-03-02T09:28:39.984Z,-0.98
2023-03-02T09:31:14.312Z,-0.97
2023-03-02T09:33:47.781Z,-0.74
2023-03-02T09:36:24.266Z,0.47
2023-03-02T09:38:57.817Z,0.45
2023-03-02T09:41:56.660Z,0.22
2023-03-02T09:44:50.773Z,0.12
2023-03-02T09:47:35.571Z,0.01
2023-03-02T09:50:09.852Z,-0.31
2023-03-02T09:52:47.152Z,-0.62
2023-03-02T09:55:23.583Z,-0.70
2023-03-02T09:57:59.940Z,-0.68
2023-03-02T10:00:36.385Z,-0.45
2023-03-02T10:03:17.468Z,-0.08
2023-03-02T10:05:50.217Z,0.32
2023-03-02T10:08:26.895Z,0.51
2023-03-02T10:11:03.892Z,0.69
2023-03-02T10:13:41.968Z,0.56
2023-03-02T10:16:23.394Z,0.72
2023-03-02T10:19:05.220Z,1.04
2023-03-02T10:21:41.634Z,1.48
2023-03-02T10:24:20.405Z,1.34
2023-03-02T10:26:56.673Z,0.94
2023-03-02T10:29:45.205Z,0.60
2023-03-02T10:32:23.442Z,0.23
2023-03-02T10:34:58.074Z,0.09
2023-03-02T10:37:33.357Z,0.16
2023-03-02T10:40:08.200Z,0.36
2023-03-02T10:42:42.819Z,0.53
2023-03-02T10:45:21.619Z,0.71
2023-03-02T10:48:04.482Z,0.84
2023-03-02T10:50:38.540Z,0.75
2023-03-02T10:53:19.681Z,0.79
2023-03-02T10:55:55.207Z,1.26
2023-03-02T10:58:32.696Z,1.19
2023-03-02T11:01:09.050Z,1.21
2023-03-02T11:03:42.626Z,1.00
2023-03-02T11:06:20.687Z,0.69
2023-03-02T11:09:03.523Z,0.45
2023-03-02T11:11:38.070Z,0.26
2023-03-02T11:14:16.209Z,0.24
2023-03-02T11:16:49.692Z,0.20
2023-03-02T11:19:26.128Z,0.15
2023-03-02T11:22:02.915Z,0.05
2023-03-02T11:24:39.197Z,0.12
2023-03-02T11:27:16.950Z,0.10
2023-03-02T11:29:50.597Z,-0.06
2023-03-02T11:32:26.868Z,-0.05
2023-03-02T11:35:03.594Z,-0.10
2023-03-02T11:37:41.110Z,-0.20
2023-03-02T11:40:22.765Z,-0.23
2023-03-02T11:42:58.158Z,-0.33
2023-03-02T11:45:34.389Z,-0.47
2023-03-02T11:48:10.650Z,-0.48
2023-03-02T11:50:47.724Z,-0.55
2023-03-02T11:53:23.079Z,-0.67
2023-03-02T11:55:56.999Z,-0.76
2023-03-02T11:58:32.954Z,-0.79
2023-03-02T12:01:09.080Z,-0.73
2023-03-02T12:03:45.794Z,-0.59
2023-03-02T12:06:33.154Z,-0.56
2023-03-02T12:09:13.280Z,-0.54
2023-03-02T12:11:47.912Z,-0.50
2023-03-02T12:14:32.360Z,-0.43
2023-03-02T12:17:25.093Z,-0.35
2023-03-02T12:20:10.904Z,-0.35
2023-03-02T12:22:44.425Z,-0.44
2023-03-02T12:25:32.099Z,-0.36
2023-03-02T12:28:04.604Z,-0.10
2023-03-02T12:30:38.141Z,-0.10
2023-03-02T12:33:22.250Z,-0.23
2023-03-02T12:36:04.688Z,-0.17
2023-03-02T12:38:40.138Z,0.05
2023-03-02T12:41:27.695Z,0.30
2023-03-02T12:44:03.991Z,0.31
2023-03-02T12:46:39.865Z,0.37
2023-03-02T12:52:31.338Z,0.52
2023-03-02T12:55:07.928Z,0.44
2023-03-02T12:57:43.353Z,0.35
2023-03-02T13:00:21.201Z,0.21
2023-03-02T13:02:54.374Z,0.08
2023-03-02T13:05:29.236Z,0.01
2023-03-02T13:08:05.583Z,-0.14
2023-03-02T13:10:42.018Z,-0.22
2023-03-02T13:13:20.661Z,-0.22
2023-03-02T13:15:56.436Z,-0.02
2023-03-02T13:18:32.540Z,0.04
2023-03-02T13:21:07.055Z,-0.11
2023-03-02T13:23:47.285Z,-0.40
2023-03-02T13:26:30.323Z,-0.59
2023-03-02T13:29:05.685Z,-0.69
2023-03-02T13:31:39.840Z,-0.83
2023-03-02T13:34:23.017Z,-0.91
2023-03-02T13:36:57.208Z,-1.02
2023-03-02T13:39:32.504Z,-1.07
2023-03-02T13:42:08.883Z,-1.09
2023-03-02T13:44:43.102Z,-1.14
2023-03-02T13:47:24.133Z,-1.21
2023-03-02T13:49:58.626Z,-1.37
2023-03-02T13:52:34.010Z,-1.46
2023-03-02T13:55:12.124Z,-1.53
2023-03-02T13:57:46.708Z,-1.58
2023-03-02T14:00:24.198Z,-1.60
2023-03-02T14:02:57.589Z,-1.67
2023-03-02T14:05:33.763Z,-1.63
2023-03-02T14:08:07.659Z,-1.72
2023-03-02T14:10:41.423Z,-1.73
2023-03-02T14:13:18.394Z,-1.75
2023-03-02T14:15:53.481Z,-1.81
2023-03-02T14:18:40.125Z,-1.88
2023-03-02T14:21:17.985Z,-1.84
2023-03-02T14:23:52.807Z,-1.93
2023-03-02T14:26:38.026Z,-1.86
2023-03-02T14:29:18.409Z,-1.84
2023-03-02T14:31:52.568Z,-1.85
2023-03-02T14:34:27.342Z,-1.86
2023-03-02T14:37:03.788Z,-1.91
2023-03-02T14:39:41.169Z,-1.92
2023-03-02T14:42:16.712Z,-1.95
2023-03-02T14:44:51.706Z,-1.89
2023-03-02T14:47:25.243Z,-1.93
2023-03-02T14:49:58.929Z,-1.91
2023-03-02T14:52:36.811Z,-1.90
2023-03-02T14:55:16.644Z,-1.97
2023-03-02T14:57:53.404Z,-2.03
2023-03-02T15:00:27.874Z,-2.01
2023-03-02T15:03:01.943Z,-2.01
2023-03-02T15:05:35.748Z,-2.00
2023-03-02T15:08:10.842Z,-2.02
2023-03-02T15:10:46.299Z,-1.99
2023-03-02T15:13:19.558Z,-1.98
2023-03-02T15:15:53.624Z,-2.03
2023-03-02T15:18:27.105Z,-2.07
2023-03-02T15:21:01.253Z,-2.16
2023-03-02T15:23:34.858Z,-2.19
2023-03-02T15:26:08.623Z,-2.18
2023-03-02T15:28:42.762Z,-2.24
2023-03-02T15:31:18.419Z,-2.22
2023-03-02T15:33:52.312Z,-2.19
2023-03-02T15:36:26.537Z,-2.31
2023-03-02T15:39:00.213Z,-2.27
2023-03-02T15:41:34.083Z,-2.28
2023-03-02T15:44:08.111Z,-2.23
2023-03-02T15:46:41.851Z,-2.27
2023-03-02T15:49:15.404Z,-2.24
2023-03-02T15:51:49.000Z,-2.21
2023-03-02T15:54:22.683Z,-2.24
2023-03-02T15:56:56.388Z,-2.21
2023-03-02T15:59:31.525Z,-2.19
2023-03-02T16:02:05.170Z,-2.22
2023-03-02T16:04:38.606Z,-2.22
2023-03-02T16:07:12.218Z,-2.19
2023-03-02T16:09:46.522Z,-2.21
2023-03-02T16:12:22.474Z,-2.19
2023-03-02T16:14:56.113Z,-2.17
2023-03-02T16:17:29.424Z,-2.21
2023-03-02T16:20:02.802Z,-2.14
2023-03-02T16:22:36.187Z,-2.16
2023-03-02T16:25:11.570Z,-2.20
2023-03-02T16:27:47.248Z,-2.21
2023-03-02T16:30:23.432Z,-2.15
2023-03-02T16:33:02.028Z,-2.20
2023-03-02T16:35:37.709Z,-2.19
2023-03-02T16:38:12.721Z,-2.21
2023-03-02T16:40:47.834Z,-2.14
2023-03-02T16:43:22.055Z,-2.11
2023-03-02T16:45:56.507Z,-2.07
2023-03-02T16:48:30.155Z,-2.04
2023-03-02T16:51:05.022Z,-2.04
2023-03-02T16:53:38.441Z,-2.02
2023-03-02T16:56:13.485Z,-1.97
2023-03-02T16:58:46.793Z,-2.00
2023-03-02T17:01:22.594Z,-1.96
2023-03-02T17:03:56.062Z,-1.93
2023-03-02T17:06:29.587Z,-1.95
2023-03-02T17:09:03.368Z,-1.92
2023-03-02T17:11:36.923Z,-1.91
2023-03-02T17:14:10.493Z,-1.90
2023-03-02T17:16:44.131Z,-1.90
2023-03-02T17:19:17.725Z,-1.88
2023-03-02T17:21:51.149Z,-1.80
2023-03-02T17:24:24.718Z,-1.77
2023-03-02T17:26:58.614Z,-1.75
2023-03-02T17:29:32.325Z,-1.78
2023-03-02T17:32:05.816Z,-1.72
2023-03-02T17:34:39.112Z,-1.75
2023-03-02T17:37:12.702Z,-1.74
2023-03-02T17:39:46.421Z,-1.71
2023-03-02T17:42:20.125Z,-1.70
2023-03-02T17:44:53.569Z,-1.69
2023-03-02T17:47:26.976Z,-1.64
2023-03-02T17:50:01.514Z,-1.63
2023-03-02T17:52:35.169Z,-1.63
2023-03-02T17:55:10.571Z,-1.61
2023-03-02T17:57:44.623Z,-1.58
2023-03-02T18:00:21.557Z,-1.58
2023-03-02T18:02:55.348Z,-1.54
2023-03-02T18:05:29.513Z,-1.57
2023-03-02T18:08:02.825Z,-1.59
2023-03-02T18:10:36.282Z,-1.55
2023-03-02T18:13:09.776Z,-1.56
2023-03-02T18:15:43.835Z,-1.55
2023-03-02T18:18:17.309Z,-1.54
2023-03-02T18:20:51.207Z,-1.59
2023-03-02T18:23:24.987Z,-1.55
2023-03-02T18:25:58.626Z,-1.57
2023-03-02T18:28:32.132Z,-1.56
2023-03-02T18:31:05.665Z,-1.52
2023-03-02T18:33:39.465Z,-1.55
2023-03-02T18:36:14.523Z,-1.56
2023-03-02T18:38:53.224Z,-1.55
2023-03-02T18:41:32.753Z,-1.53
2023-03-02T18:44:06.830Z,-1.51
2023-03-02T18:46:40.639Z,-1.53
2023-03-02T18:49:14.373Z,-1.58
2023-03-02T18:51:48.666Z,-1.48
2023-03-02T18:54:22.243Z,-1.49
2023-03-02T18:56:55.655Z,-1.46
2023-03-02T18:59:29.351Z,-1.44
2023-03-02T19:02:04.254Z,-1.45
2023-03-02T19:04:37.706Z,-1.45
2023-03-02T19:07:11.643Z,-1.42
2023-03-02T19:09:45.107Z,-1.39
2023-03-02T19:12:20.028Z,-1.39
2023-03-02T19:14:55.417Z,-1.38
2023-03-02T19:17:35.939Z,-1.35
2023-03-02T19:20:19.821Z,-1.31
2023-03-02T19:22:59.975Z,-1.34
2023-03-02T19:25:35.618Z,-1.31
2023-03-02T19:28:19.101Z,-1.32
2023-03-02T19:30:55.490Z,-1.34
2023-03-02T19:33:29.203Z,-1.34
2023-03-02T19:36:02.333Z,-1.34
2023-03-02T19:38:37.856Z,-1.35
2023-03-02T19:41:12.509Z,-1.35
2023-03-02T19:43:46.461Z,-1.35
2023-03-02T19:46:21.084Z,-1.35
2023-03-02T19:48:54.830Z,-1.33
2023-03-02T19:51:28.725Z,-1.31
2023-03-02T19:54:04.446Z,-1.31
2023-03-02T19:56:39.843Z,-1.29
2023-03-02T19:59:13.573Z,-1.28
2023-03-02T20:01:48.906Z,-1.24
2023-03-02T20:04:22.265Z,-1.26
2023-03-02T20:06:55.697Z,-1.24
2023-03-02T20:09:29.288Z,-1.24
2023-03-02T20:12:05.043Z,-1.23
2023-03-02T20:14:40.458Z,-1.22
2023-03-02T20:17:14.135Z,-1.20
2023-03-02T20:19:47.831Z,-1.20
2023-03-02T20:22:21.331Z,-1.16
2023-03-02T20:24:54.821Z,-1.17
2023-03-02T20:27:28.353Z,-1.19
2023-03-02T20:30:01.685Z,-1.17
2023-03-02T20:32:35.223Z,-1.14
2023-03-02T20:35:11.283Z,-1.11
2023-03-02T20:37:44.750Z,-1.09
2023-03-02T20:40:19.531Z,-1.08
2023-03-02T20:42:53.735Z,-1.05
2023-03-02T20:45:27.272Z,-1.02
2023-03-02T20:48:00.872Z,-1.03
2023-03-02T20:50:36.346Z,-1.03
2023-03-02T20:53:10.795Z,-1.02
2023-03-02T20:55:44.962Z,-1.01
2023-03-02T20:58:18.932Z,-1.01
2023-03-02T21:00:53.999Z,-1.00
2023-03-02T21:03:27.133Z,-0.99
2023-03-02T21:06:00.918Z,-1.01
2023-03-02T21:08:36.405Z,-1.02
2023-03-02T21:11:12.703Z,-1.00
2023-03-02T21:13:47.794Z,-1.04
2023-03-02T21:16:24.080Z,-1.04
2023-03-02T21:19:00.539Z,-1.04
2023-03-02T21:21:41.352Z,-1.09
2023-03-02T21:24:10.805Z,-1.13
2023-03-02T21:26:44.995Z,-1.13
2023-03-02T21:29:21.638Z,-1.13
2023-03-02T21:31:55.761Z,-1.13
2023-03-02T21:34:32.103Z,-1.15
2023-03-02T21:37:08.670Z,-1.20
2023-03-02T21:39:43.587Z,-1.27
2023-03-02T21:42:19.646Z,-1.35
2023-03-02T21:44:52.949Z,-1.42
2023-03-02T21:47:26.365Z,-1.46
2023-03-02T21:49:59.918Z,-1.49
2023-03-02T21:52:35.130Z,-1.55
2023-03-02T21:55:10.375Z,-1.59
2023-03-02T21:57:44.400Z,-1.61
2023-03-02T22:00:22.972Z,-1.60
2023-03-02T22:02:57.036Z,-1.61
2023-03-02T22:05:30.578Z,-1.61
2023-03-02T22:08:03.913Z,-1.58
2023-03-02T22:10:41.614Z,-1.50
2023-03-02T22:13:18.532Z,-1.42
2023-03-02T22:15:53.776Z,-1.31
2023-03-02T22:18:27.985Z,-1.27
2023-03-02T22:21:02.790Z,-1.23
2023-03-02T22:23:36.212Z,-1.17
2023-03-02T22:26:14.499Z,-1.12
2023-03-02T22:28:47.885Z,-1.09
2023-03-02T22:31:23.656Z,-1.09
2023-03-02T22:33:57.178Z,-1.10
2023-03-02T22:36:31.953Z,-1.11
2023-03-02T22:39:09.960Z,-1.19
2023-03-02T22:41:43.369Z,-1.27
2023-03-02T22:44:17.008Z,-1.30
2023-03-02T22:46:50.711Z,-1.30
2023-03-02T22:49:24.042Z,-1.25
2023-03-02T22:51:59.231Z,-1.22
2023-03-02T22:54:35.422Z,-1.22
2023-03-02T22:57:26.883Z,-1.20
2023-03-02T23:00:07.619Z,-1.19
2023-03-02T23:02:44.223Z,-1.17
2023-03-02T23:05:28.576Z,-1.17
2023-03-02T23:08:14.067Z,-1.15
2023-03-02T23:10:48.542Z,-1.15
2023-03-02T23:13:26.928Z,-1.15
2023-03-02T23:15:59.510Z,-1.15
2023-03-02T23:18:34.304Z,-1.16
2023-03-02T23:21:14.412Z,-1.17
2023-03-02T23:23:47.910Z,-1.15
2023-03-02T23:26:21.956Z,-1.15
2023-03-02T23:28:55.864Z,-1.14
2023-03-02T23:31:30.364Z,-1.16
2023-03-02T23:34:05.526Z,-1.18
2023-03-02T23:36:39.856Z,-1.16
2023-03-02T23:39:14.589Z,-1.11
2023-03-02T23:41:47.906Z,-1.09
2023-03-02T23:44:22.245Z,-1.06
2023-03-02T23:46:56.235Z,-1.05
2023-03-02T23:49:29.853Z,-1.02
2023-03-02T23:52:03.685Z,-1.04
2023-03-02T23:54:36.247Z,-1.05
2023-03-02T23:57:10.021Z,-1.07
2023-03-02T23:59:46.310Z,-1.08
